Time;durP1;ratioP1;P1;durP2;ratioP2;P2;SDS_P1;SDS_P2;PMS_P1;PMS_P2;Temp;Humidity;BMP_temperature;BMP_pressure;BME280_temperature;BME280_humidity;BME280_pressure;Samples;Min_cycle;Max_cycle;Signal;HPM_P1;HPM_P2
2021/07/16 00:00:19;;;;;;;1.20;0.80;;;16.00;99.90;;;;;;4935121;29;20323;-53
2021/07/16 00:02:48;;;;;;;0.90;0.80;;;15.90;99.90;;;;;;4934895;29;20322;-55
2021/07/16 00:05:16;;;;;;;2.25;0.90;;;15.80;99.90;;;;;;4935015;29;20216;-52
2021/07/16 00:07:44;;;;;;;0.82;0.82;;;15.80;99.90;;;;;;4934765;29;20244;-50
2021/07/16 00:10:15;;;;;;;0.85;0.85;;;15.70;99.90;;;;;;4934744;29;20770;-51
2021/07/16 00:12:46;;;;;;;1.35;0.88;;;15.60;99.90;;;;;;4934847;29;20290;-48
2021/07/16 00:15:16;;;;;;;1.27;1.13;;;15.60;99.90;;;;;;4934914;29;20215;-49
2021/07/16 00:17:44;;;;;;;1.92;0.90;;;15.50;99.90;;;;;;4934862;29;20299;-56
2021/07/16 00:20:14;;;;;;;1.40;1.17;;;15.50;99.90;;;;;;4934750;29;20658;-51
2021/07/16 00:22:42;;;;;;;5.13;1.30;;;15.50;99.90;;;;;;4934658;29;20315;-55
2021/07/16 00:25:11;;;;;;;2.28;1.38;;;15.40;99.90;;;;;;4934982;29;20196;-57
2021/07/16 00:27:40;;;;;;;3.65;1.98;;;15.40;99.90;;;;;;4934758;29;20215;-49
2021/07/16 00:30:12;;;;;;;1.17;1.08;;;15.40;99.90;;;;;;4934658;29;20303;-53
2021/07/16 00:32:41;;;;;;;1.77;1.33;;;15.40;99.90;;;;;;4934623;29;20302;-49
2021/07/16 00:35:10;;;;;;;2.58;1.50;;;15.30;99.90;;;;;;4934634;29;20218;-50
2021/07/16 00:37:38;;;;;;;3.17;1.20;;;15.30;99.90;;;;;;4934812;29;20300;-51
2021/07/16 00:40:08;;;;;;;1.50;1.40;;;15.20;99.90;;;;;;4934620;29;20866;-49
2021/07/16 00:42:36;;;;;;;1.92;1.73;;;15.20;99.90;;;;;;4934531;29;20228;-54
2021/07/16 00:45:06;;;;;;;5.30;2.28;;;15.10;99.90;;;;;;4934486;29;20223;-53
2021/07/16 00:47:36;;;;;;;5.03;2.65;;;15.10;99.90;;;;;;4934491;29;20296;-51
2021/07/16 00:50:07;;;;;;;4.18;2.97;;;15.10;99.90;;;;;;4934453;29;20315;-56
2021/07/16 00:52:36;;;;;;;3.75;3.22;;;15.10;99.90;;;;;;4937295;29;20204;-55
2021/07/16 00:55:05;;;;;;;5.63;3.25;;;15.10;99.90;;;;;;4938380;29;20303;-54
2021/07/16 00:57:34;;;;;;;3.72;3.35;;;15.10;99.90;;;;;;4938199;29;20224;-57
2021/07/16 01:00:03;;;;;;;6.22;3.60;;;15.10;99.90;;;;;;4938171;29;20216;-55
2021/07/16 01:02:31;;;;;;;3.60;3.30;;;15.10;99.90;;;;;;4937876;29;20306;-57
2021/07/16 01:05:01;;;;;;;5.32;3.97;;;15.10;99.90;;;;;;4938313;29;20223;-54
2021/07/16 01:07:29;;;;;;;4.57;4.10;;;15.10;99.90;;;;;;4938136;29;20235;-56
2021/07/16 01:09:58;;;;;;;5.32;3.88;;;15.10;99.90;;;;;;4937795;29;20575;-52
2021/07/16 01:12:26;;;;;;;7.18;3.97;;;15.00;99.90;;;;;;4938048;29;20290;-57
2021/07/16 01:14:54;;;;;;;5.15;4.50;;;15.00;99.90;;;;;;4937879;29;20215;-56
2021/07/16 01:17:22;;;;;;;7.05;4.38;;;15.00;99.90;;;;;;4938148;29;20218;-57
2021/07/16 01:19:56;;;;;;;5.10;4.50;;;15.00;99.90;;;;;;4938074;29;20664;-57
2021/07/16 01:22:29;;;;;;;4.95;4.45;;;15.00;99.90;;;;;;4938137;29;20299;-49
2021/07/16 01:25:01;;;;;;;5.93;3.80;;;14.90;99.90;;;;;;4937614;29;20244;-53
2021/07/16 01:27:30;;;;;;;9.45;4.13;;;14.90;99.90;;;;;;4937437;29;20315;-53
2021/07/16 01:29:59;;;;;;;7.57;4.20;;;14.90;99.90;;;;;;4938353;29;20699;-52
2021/07/16 01:32:28;;;;;;;4.45;4.07;;;14.90;99.90;;;;;;4937698;29;20299;-54
2021/07/16 01:34:56;;;;;;;5.60;4.15;;;14.80;99.90;;;;;;4937526;29;20207;-55
2021/07/16 01:37:24;;;;;;;5.20;3.60;;;14.80;99.90;;;;;;4937503;29;20223;-57
2021/07/16 01:39:52;;;;;;;5.18;3.92;;;14.80;99.90;;;;;;4937441;29;20246;-57
2021/07/16 01:42:22;;;;;;;6.30;3.88;;;14.70;99.90;;;;;;4937569;29;20215;-55
2021/07/16 01:44:50;;;;;;;6.93;4.15;;;14.70;99.90;;;;;;4937222;29;20734;-57
2021/07/16 01:47:18;;;;;;;6.60;5.05;;;14.70;99.90;;;;;;4937269;29;20287;-56
2021/07/16 01:49:45;;;;;;;10.43;6.28;;;14.70;99.90;;;;;;4937270;29;20688;-57
2021/07/16 01:52:13;;;;;;;7.05;5.75;;;14.70;99.90;;;;;;4937225;29;20208;-53
2021/07/16 01:54:41;;;;;;;6.97;5.47;;;14.70;99.90;;;;;;4937139;29;20310;-55
2021/07/16 01:57:10;;;;;;;7.93;5.95;;;14.70;99.90;;;;;;4937350;29;20227;-58
2021/07/16 01:59:39;;;;;;;7.05;5.70;;;14.70;99.90;;;;;;4936945;29;20306;-59
2021/07/16 02:02:07;;;;;;;7.47;6.22;;;14.70;99.90;;;;;;4937025;29;20212;-57
2021/07/16 02:04:35;;;;;;;12.88;6.78;;;14.80;99.90;;;;;;4936960;29;20226;-52
2021/07/16 02:07:03;;;;;;;10.43;8.07;;;14.80;99.90;;;;;;4936791;29;20295;-52
2021/07/16 02:09:31;;;;;;;9.73;7.93;;;14.90;99.90;;;;;;4937096;29;20278;-55
2021/07/16 02:11:59;;;;;;;13.15;8.75;;;14.90;99.90;;;;;;4936983;29;20282;-54
2021/07/16 02:14:28;;;;;;;10.93;9.25;;;14.90;99.90;;;;;;4936833;29;20687;-54
2021/07/16 02:16:59;;;;;;;9.02;8.13;;;15.00;99.90;;;;;;4936635;29;20306;-53
2021/07/16 02:19:28;;;;;;;11.02;8.43;;;15.10;99.90;;;;;;4936658;29;20636;-54
2021/07/16 02:21:56;;;;;;;8.75;7.85;;;15.10;99.90;;;;;;4936898;29;20216;-55
2021/07/16 02:24:24;;;;;;;11.23;8.57;;;15.10;99.90;;;;;;4936502;29;20239;-50
2021/07/16 02:26:52;;;;;;;10.38;8.93;;;15.20;99.90;;;;;;4936603;29;20270;-54
2021/07/16 02:29:20;;;;;;;9.20;8.18;;;15.20;99.90;;;;;;4936821;29;20259;-55
2021/07/16 02:31:50;;;;;;;10.55;8.43;;;15.20;99.90;;;;;;4936486;29;20307;-54
2021/07/16 02:34:21;;;;;;;10.27;9.18;;;15.20;99.90;;;;;;4936404;29;20267;-54
2021/07/16 02:36:49;;;;;;;9.63;8.73;;;15.30;99.90;;;;;;4936280;29;20311;-56
2021/07/16 02:39:17;;;;;;;10.77;9.23;;;15.30;99.90;;;;;;4936485;29;20319;-53
2021/07/16 02:41:45;;;;;;;9.35;8.45;;;15.30;99.90;;;;;;4936238;29;20299;-55
2021/07/16 02:44:13;;;;;;;10.13;8.68;;;15.30;99.90;;;;;;4936062;29;20322;-55
2021/07/16 02:46:41;;;;;;;9.18;8.10;;;15.30;99.90;;;;;;4936271;29;20731;-54
2021/07/16 02:49:09;;;;;;;14.77;9.65;;;15.30;99.90;;;;;;4936278;29;20738;-55
2021/07/16 02:51:38;;;;;;;10.27;8.80;;;15.30;99.90;;;;;;4936295;29;20242;-55
2021/07/16 02:54:06;;;;;;;9.77;8.82;;;15.20;99.90;;;;;;4936217;29;20208;-51
2021/07/16 02:56:34;;;;;;;11.25;9.75;;;15.20;99.90;;;;;;4935921;29;20294;-54
2021/07/16 02:59:02;;;;;;;10.07;8.98;;;15.20;99.90;;;;;;4935903;29;20609;-54
2021/07/16 03:01:30;;;;;;;11.32;10.13;;;15.20;99.90;;;;;;4936108;29;20200;-55
2021/07/16 03:03:58;;;;;;;11.05;9.95;;;15.30;99.90;;;;;;4936012;29;20283;-56
2021/07/16 03:06:26;;;;;;;11.15;9.38;;;15.30;99.90;;;;;;4935780;29;20250;-57
2021/07/16 03:08:55;;;;;;;14.52;10.05;;;15.20;99.90;;;;;;4935815;29;20338;-55
2021/07/16 03:11:23;;;;;;;13.40;9.82;;;15.20;99.90;;;;;;4935844;29;20248;-57
2021/07/16 03:13:51;;;;;;;13.13;10.35;;;15.20;99.90;;;;;;4935134;29;20758;-56
2021/07/16 03:16:19;;;;;;;9.82;8.93;;;15.20;99.90;;;;;;4935582;29;20216;-53
2021/07/16 03:18:47;;;;;;;10.10;9.00;;;15.10;99.90;;;;;;4935481;29;20235;-55
2021/07/16 03:21:14;;;;;;;14.70;8.32;;;15.10;99.90;;;;;;4935475;29;20639;-54
2021/07/16 03:23:42;;;;;;;15.00;8.90;;;15.10;99.90;;;;;;4935543;29;20732;-54
2021/07/16 03:26:12;;;;;;;12.15;9.30;;;15.10;99.90;;;;;;4935271;29;20211;-57
2021/07/16 03:28:40;;;;;;;12.15;10.95;;;15.10;99.90;;;;;;4935482;29;20312;-57
2021/07/16 03:31:07;;;;;;;10.35;9.20;;;15.10;99.90;;;;;;4935559;29;20262;-55
2021/07/16 03:33:36;;;;;;;11.15;8.40;;;15.10;99.90;;;;;;4935657;29;20302;-55
2021/07/16 03:36:06;;;;;;;9.38;8.20;;;15.10;99.90;;;;;;4935380;29;20560;-50
2021/07/16 03:38:34;;;;;;;10.43;7.85;;;15.00;99.90;;;;;;4935207;29;20216;-51
2021/07/16 03:41:02;;;;;;;10.27;7.75;;;15.00;99.90;;;;;;4935502;29;20291;-53
2021/07/16 03:43:31;;;;;;;10.25;8.13;;;15.00;99.90;;;;;;4935421;29;20215;-54
2021/07/16 03:45:59;;;;;;;8.15;7.20;;;14.90;99.90;;;;;;4935077;29;20660;-57
2021/07/16 03:48:27;;;;;;;10.05;7.80;;;14.90;99.90;;;;;;4935254;29;20287;-57
2021/07/16 03:50:56;;;;;;;11.20;8.00;;;14.90;99.90;;;;;;4935079;29;20680;-56
2021/07/16 03:53:24;;;;;;;10.02;7.82;;;14.90;99.90;;;;;;4935229;29;20208;-53
2021/07/16 03:55:52;;;;;;;14.93;8.05;;;14.90;99.90;;;;;;4935206;29;20295;-58
2021/07/16 03:58:20;;;;;;;10.35;7.60;;;14.90;99.90;;;;;;4935336;29;20251;-51
2021/07/16 04:00:49;;;;;;;11.55;8.20;;;14.90;99.90;;;;;;4935087;29;20277;-51
2021/07/16 04:03:20;;;;;;;12.55;7.60;;;15.00;99.90;;;;;;4934745;29;20237;-56
2021/07/16 04:05:48;;;;;;;11.65;7.05;;;15.00;99.90;;;;;;4934624;29;20291;-51
2021/07/16 04:08:18;;;;;;;9.55;7.03;;;15.00;99.90;;;;;;4934613;29;20688;-45
2021/07/16 04:10:46;;;;;;;12.57;7.50;;;15.10;99.90;;;;;;4935316;29;20307;-44
2021/07/16 04:13:14;;;;;;;10.73;7.50;;;15.10;99.90;;;;;;4934980;29;20209;-46
2021/07/16 04:15:44;;;;;;;12.63;7.45;;;15.20;99.90;;;;;;4935003;29;20208;-45
2021/07/16 04:18:13;;;;;;;23.73;21.40;;;15.20;99.90;;;;;;4935632;29;20208;-48
2021/07/16 04:20:42;;;;;;;11.63;8.77;;;15.20;99.90;;;;;;4936145;29;20242;-47
2021/07/16 04:23:10;;;;;;;14.23;10.35;;;15.20;99.90;;;;;;4936208;29;20216;-49
2021/07/16 04:25:38;;;;;;;17.00;13.00;;;15.30;99.90;;;;;;4936298;29;20264;-47
2021/07/16 04:28:07;;;;;;;14.77;13.30;;;15.40;99.90;;;;;;4939906;29;20220;-48
2021/07/16 04:30:35;;;;;;;14.27;12.30;;;15.40;99.90;;;;;;4938985;29;20294;-46
2021/07/16 04:33:05;;;;;;;15.73;13.73;;;15.50;99.90;;;;;;4939533;29;20604;-47
2021/07/16 04:35:35;;;;;;;13.52;12.13;;;15.50;99.90;;;;;;4939105;29;20208;-53
2021/07/16 04:38:03;;;;;;;13.43;11.98;;;15.70;99.90;;;;;;4938942;29;20216;-49
2021/07/16 04:40:34;;;;;;;11.75;9.25;;;15.80;99.90;;;;;;4938581;29;20244;-49
2021/07/16 04:43:03;;;;;;;10.88;8.75;;;15.90;99.90;;;;;;4938565;29;20212;-51
2021/07/16 04:45:37;;;;;;;13.75;10.05;;;15.90;99.90;;;;;;4938279;29;20236;-51
2021/07/16 04:48:07;;;;;;;12.10;9.48;;;16.00;99.90;;;;;;4939024;29;20211;-48
2021/07/16 04:50:37;;;;;;;16.65;11.48;;;16.10;99.90;;;;;;4938756;29;20244;-50
2021/07/16 04:53:06;;;;;;;13.75;11.48;;;16.20;99.90;;;;;;4938902;29;20212;-50
2021/07/16 04:55:34;;;;;;;15.82;11.88;;;16.20;99.90;;;;;;4939033;29;20312;-48
2021/07/16 04:58:02;;;;;;;13.18;11.18;;;16.20;99.90;;;;;;4938488;29;20283;-52
2021/07/16 05:00:30;;;;;;;13.45;12.15;;;16.20;99.90;;;;;;4938387;29;20607;-45
2021/07/16 05:02:58;;;;;;;15.32;12.93;;;16.20;99.90;;;;;;4938198;29;20609;-50
2021/07/16 05:05:26;;;;;;;14.05;12.65;;;16.30;99.90;;;;;;4938262;29;20270;-49
2021/07/16 05:07:55;;;;;;;18.25;13.48;;;16.20;99.90;;;;;;4937750;29;20330;-43
2021/07/16 05:10:23;;;;;;;14.15;12.10;;;16.20;99.90;;;;;;4937703;29;20212;-50
2021/07/16 05:12:51;;;;;;;14.57;12.93;;;16.10;99.90;;;;;;4937978;29;20295;-45
2021/07/16 05:15:19;;;;;;;13.77;12.40;;;16.10;99.90;;;;;;4938015;29;20626;-49
2021/07/16 05:17:47;;;;;;;15.45;13.70;;;16.10;99.90;;;;;;4937925;29;20232;-46
2021/07/16 05:20:15;;;;;;;13.35;12.13;;;16.10;99.90;;;;;;4937534;29;20306;-46
2021/07/16 05:22:43;;;;;;;12.30;11.15;;;16.10;99.90;;;;;;4937549;29;20212;-45
2021/07/16 05:25:12;;;;;;;14.57;13.02;;;16.10;99.90;;;;;;4937494;29;20264;-47
2021/07/16 05:27:40;;;;;;;23.80;21.50;;;16.10;99.90;;;;;;4937607;29;20581;-49
2021/07/16 05:30:10;;;;;;;15.35;13.90;;;16.10;99.90;;;;;;4938485;29;20299;-53
2021/07/16 05:32:40;;;;;;;16.25;12.93;;;16.20;99.90;;;;;;4943179;29;20253;-51
2021/07/16 05:35:10;;;;;;;13.90;12.50;;;16.30;99.90;;;;;;4937251;29;20713;-51
2021/07/16 05:37:38;;;;;;;13.90;11.32;;;16.40;99.90;;;;;;4937047;29;20314;-50
2021/07/16 05:40:08;;;;;;;13.88;12.48;;;16.50;99.90;;;;;;4937106;29;20675;-48
2021/07/16 05:42:37;;;;;;;13.68;11.38;;;16.60;99.90;;;;;;4937187;29;20753;-48
2021/07/16 05:45:06;;;;;;;15.45;13.90;;;16.70;99.90;;;;;;4937175;29;20319;-51
2021/07/16 05:47:34;;;;;;;16.83;12.82;;;16.80;99.90;;;;;;4937030;29;20298;-50
2021/07/16 05:50:06;;;;;;;14.00;12.77;;;17.00;99.90;;;;;;4936859;29;20248;-51
2021/07/16 05:52:34;;;;;;;13.18;11.88;;;17.10;99.90;;;;;;4937006;29;20243;-52
2021/07/16 05:55:04;;;;;;;12.45;11.35;;;17.20;99.90;;;;;;4936590;29;20212;-50
2021/07/16 05:57:32;;;;;;;12.88;11.80;;;17.30;99.90;;;;;;4936578;29;20364;-52
2021/07/16 06:00:02;;;;;;;18.20;16.20;;;17.30;99.90;;;;;;4936581;29;20259;-51
2021/07/16 06:02:30;;;;;;;13.55;12.15;;;17.30;99.90;;;;;;4936736;29;20240;-48
2021/07/16 06:04:58;;;;;;;11.88;10.70;;;17.40;99.90;;;;;;4936503;29;20212;-48
2021/07/16 06:07:26;;;;;;;9.93;9.00;;;17.50;99.90;;;;;;4936298;29;20272;-53
2021/07/16 06:09:54;;;;;;;11.55;10.32;;;17.60;99.90;;;;;;4936276;29;20303;-47
2021/07/16 06:12:22;;;;;;;11.10;10.05;;;17.60;99.90;;;;;;4936322;29;20254;-46
2021/07/16 06:14:54;;;;;;;12.15;10.95;;;17.60;99.90;;;;;;4936292;29;20212;-47
2021/07/16 06:17:23;;;;;;;11.55;10.55;;;17.70;99.90;;;;;;4936127;29;20208;-48
2021/07/16 06:19:51;;;;;;;13.13;11.93;;;17.80;99.90;;;;;;4936346;29;20247;-47
2021/07/16 06:22:20;;;;;;;15.10;13.70;;;17.80;99.90;;;;;;4936370;29;20303;-50
2021/07/16 06:24:48;;;;;;;19.02;17.27;;;17.80;99.90;;;;;;4936037;29;20220;-47
2021/07/16 06:27:17;;;;;;;15.30;13.40;;;17.90;99.90;;;;;;4935883;29;20243;-47
2021/07/16 06:29:45;;;;;;;14.32;13.02;;;17.80;99.90;;;;;;4935977;29;20713;-50
2021/07/16 06:32:13;;;;;;;15.32;13.82;;;17.80;99.90;;;;;;4936147;29;20212;-49
2021/07/16 06:34:42;;;;;;;16.13;14.68;;;17.80;99.90;;;;;;4935934;29;20208;-49
2021/07/16 06:37:10;;;;;;;14.25;12.85;;;17.90;99.90;;;;;;4935973;29;20271;-51
2021/07/16 06:39:38;;;;;;;13.95;12.75;;;17.80;99.90;;;;;;4936141;29;20604;-52
2021/07/16 06:42:07;;;;;;;11.43;10.43;;;17.80;99.90;;;;;;4935637;29;20638;-53
2021/07/16 06:44:35;;;;;;;12.88;11.57;;;17.70;99.90;;;;;;4936214;29;20283;-55
2021/07/16 06:47:03;;;;;;;13.73;12.43;;;17.70;99.90;;;;;;4935681;29;20331;-52
2021/07/16 06:49:31;;;;;;;11.27;10.27;;;17.70;99.90;;;;;;4934929;29;20247;-54
2021/07/16 06:52:00;;;;;;;16.08;14.50;;;17.80;99.90;;;;;;4935787;29;20302;-54
2021/07/16 06:54:29;;;;;;;10.68;9.63;;;17.90;99.90;;;;;;4935813;29;20346;-52
2021/07/16 06:56:57;;;;;;;9.75;8.88;;;17.90;99.90;;;;;;4935633;29;20605;-48
2021/07/16 06:59:25;;;;;;;10.60;9.63;;;17.90;99.90;;;;;;4935922;29;20240;-50
2021/07/16 07:01:53;;;;;;;12.52;11.32;;;17.90;99.90;;;;;;4935685;29;20631;-53
2021/07/16 07:04:23;;;;;;;10.15;9.25;;;17.90;99.90;;;;;;4935710;29;20235;-52
2021/07/16 07:06:51;;;;;;;11.07;8.98;;;17.90;99.90;;;;;;4935338;29;20263;-52
2021/07/16 07:09:21;;;;;;;9.80;8.82;;;18.10;99.90;;;;;;4935345;29;20215;-49
2021/07/16 07:11:49;;;;;;;10.05;9.13;;;18.40;99.90;;;;;;4935440;29;20251;-46
2021/07/16 07:14:17;;;;;;;9.85;8.93;;;18.70;99.90;;;;;;4935550;29;20732;-48
2021/07/16 07:16:45;;;;;;;11.25;10.10;;;19.10;99.90;;;;;;4935467;29;20212;-45
2021/07/16 07:19:13;;;;;;;10.35;9.10;;;19.50;99.90;;;;;;4935523;29;20263;-45
2021/07/16 07:21:41;;;;;;;11.43;10.30;;;19.60;99.90;;;;;;4935175;29;20308;-51
2021/07/16 07:24:09;;;;;;;9.40;8.52;;;19.70;99.90;;;;;;4935361;29;20296;-47
2021/07/16 07:26:38;;;;;;;9.68;8.77;;;19.80;99.90;;;;;;4935227;29;20823;-46
2021/07/16 07:29:06;;;;;;;9.43;8.40;;;19.90;99.90;;;;;;4935146;29;20254;-45
2021/07/16 07:31:34;;;;;;;9.27;8.27;;;20.00;99.90;;;;;;4935210;29;20208;-46
2021/07/16 07:34:03;;;;;;;9.98;9.07;;;19.90;99.90;;;;;;4935067;29;20239;-45
2021/07/16 07:36:31;;;;;;;10.45;8.45;;;19.90;99.90;;;;;;4935102;29;20212;-45
2021/07/16 07:38:59;;;;;;;10.25;9.15;;;19.80;99.90;;;;;;4935471;29;20303;-50
2021/07/16 07:41:28;;;;;;;11.55;10.13;;;19.60;99.90;;;;;;4935142;29;20222;-48
2021/07/16 07:43:58;;;;;;;12.23;9.80;;;19.50;99.90;;;;;;4935139;29;20239;-49
2021/07/16 07:46:26;;;;;;;10.68;9.63;;;19.40;99.90;;;;;;4934896;29;20286;-46
2021/07/16 07:48:55;;;;;;;11.73;10.60;;;19.40;99.90;;;;;;4934756;29;20656;-46
2021/07/16 07:51:23;;;;;;;12.23;11.13;;;19.40;99.90;;;;;;4935200;29;20211;-44
2021/07/16 07:53:51;;;;;;;13.63;12.27;;;19.50;99.90;;;;;;4934950;29;20315;-46
2021/07/16 07:56:30;;;;;;;14.18;12.73;;;19.50;99.90;;;;;;4934612;29;20236;-44
2021/07/16 07:58:59;;;;;;;13.50;12.18;;;19.60;99.90;;;;;;4935013;29;20219;-48
2021/07/16 08:01:31;;;;;;;13.82;12.50;;;19.80;99.90;;;;;;4934472;29;20226;-49
2021/07/16 08:04:00;;;;;;;13.25;12.10;;;20.10;99.90;;;;;;4934619;29;20718;-46
2021/07/16 08:06:29;;;;;;;13.90;12.50;;;20.30;99.90;;;;;;4934728;29;20243;-46
2021/07/16 08:08:57;;;;;;;11.70;10.70;;;20.40;99.90;;;;;;4934566;29;20255;-46
2021/07/16 08:11:26;;;;;;;12.65;11.35;;;20.50;99.90;;;;;;4934776;29;20290;-46
2021/07/16 08:13:54;;;;;;;12.13;11.02;;;20.80;99.90;;;;;;4934765;29;20240;-50
2021/07/16 08:16:23;;;;;;;13.50;12.10;;;20.90;99.90;;;;;;4934505;29;20676;-51
2021/07/16 08:18:51;;;;;;;14.68;13.10;;;21.10;99.90;;;;;;4934586;29;20212;-50
2021/07/16 08:21:21;;;;;;;12.60;11.40;;;21.30;99.90;;;;;;4934632;29;20299;-46
2021/07/16 08:23:49;;;;;;;12.07;10.85;;;21.40;99.90;;;;;;4934465;29;20219;-47
2021/07/16 08:26:18;;;;;;;12.50;11.30;;;21.40;99.90;;;;;;4934392;29;20676;-46
2021/07/16 08:28:51;;;;;;;12.32;11.05;;;21.50;99.90;;;;;;4934471;29;20230;-46
2021/07/16 08:31:19;;;;;;;11.65;10.45;;;21.60;99.90;;;;;;4934773;29;20232;-46
2021/07/16 08:33:49;;;;;;;11.52;10.38;;;21.40;99.90;;;;;;4934527;29;20243;-47
2021/07/16 08:36:17;;;;;;;9.13;8.32;;;21.40;99.90;;;;;;4934325;29;20247;-46
2021/07/16 08:38:46;;;;;;;7.95;7.05;;;21.40;99.90;;;;;;4934248;29;20680;-47
2021/07/16 08:41:14;;;;;;;9.90;8.85;;;21.50;99.90;;;;;;4934576;29;20279;-44
2021/07/16 08:43:43;;;;;;;6.90;6.30;;;21.50;99.90;;;;;;4934423;29;20247;-43
2021/07/16 08:46:12;;;;;;;7.10;6.50;;;21.50;99.90;;;;;;4934508;29;20258;-44
2021/07/16 08:48:41;;;;;;;6.70;5.95;;;21.50;99.90;;;;;;4934358;29;20327;-43
2021/07/16 08:51:11;;;;;;;11.98;6.10;;;21.60;99.90;;;;;;4934311;29;20615;-45
2021/07/16 08:53:39;;;;;;;6.47;5.88;;;21.80;99.90;;;;;;4934625;29;20296;-47
2021/07/16 08:56:08;;;;;;;5.70;5.20;;;21.90;99.90;;;;;;4934390;29;20739;-50
2021/07/16 08:58:36;;;;;;;7.22;5.90;;;21.80;99.90;;;;;;4934656;29;20247;-46
2021/07/16 09:01:04;;;;;;;6.47;5.50;;;21.80;99.90;;;;;;4934153;29;20216;-49
2021/07/16 09:03:33;;;;;;;6.60;5.93;;;21.90;99.90;;;;;;4934318;29;20216;-47
2021/07/16 09:06:01;;;;;;;7.88;6.28;;;22.00;99.90;;;;;;4934288;29;20668;-47
2021/07/16 09:08:31;;;;;;;6.05;5.50;;;22.10;99.90;;;;;;4934208;29;20268;-48
2021/07/16 09:10:59;;;;;;;7.18;6.57;;;22.00;99.90;;;;;;4934472;29;20302;-48
2021/07/16 09:13:30;;;;;;;7.03;5.80;;;21.90;99.90;;;;;;4936608;29;20216;-49
2021/07/16 09:16:00;;;;;;;6.05;5.55;;;21.80;99.90;;;;;;4937743;29;20215;-52
2021/07/16 09:18:30;;;;;;;5.85;5.25;;;21.80;99.90;;;;;;4938072;29;20212;-48
2021/07/16 09:21:07;;;;;;;7.32;6.63;;;21.90;99.90;;;;;;4937669;29;20247;-45
2021/07/16 09:23:39;;;;;;;6.60;5.93;;;22.00;99.90;;;;;;4937853;29;20491;-44
2021/07/16 09:26:12;;;;;;;6.07;5.32;;;22.20;99.90;;;;;;4937298;29;20299;-45
2021/07/16 09:28:41;;;;;;;5.05;4.65;;;22.30;99.90;;;;;;4937539;29;20323;-47
2021/07/16 09:31:16;;;;;;;6.25;5.75;;;22.20;99.90;;;;;;4938710;29;20276;-49
2021/07/16 09:33:46;;;;;;;4.85;4.40;;;22.20;99.90;;;;;;4937956;29;20220;-46
2021/07/16 09:36:26;;;;;;;7.90;4.68;;;22.40;99.90;;;;;;4937212;29;20369;-47
2021/07/16 09:38:58;;;;;;;5.32;4.30;;;22.50;99.90;;;;;;4937197;29;20360;-47
2021/07/16 09:41:25;;;;;;;5.20;4.78;;;22.70;99.90;;;;;;4937468;29;20332;-50
2021/07/16 09:44:00;;;;;;;5.88;4.40;;;23.10;99.90;;;;;;4938020;29;20208;-47
2021/07/16 09:46:28;;;;;;;5.40;3.97;;;23.30;99.90;;;;;;4937455;29;20219;-49
2021/07/16 09:49:11;;;;;;;5.82;5.10;;;23.60;99.90;;;;;;4937773;29;20607;-47
2021/07/16 09:51:42;;;;;;;5.18;4.47;;;23.90;99.90;;;;;;4937676;29;20271;-47
2021/07/16 09:54:17;;;;;;;4.55;4.15;;;24.00;99.90;;;;;;4939069;29;20669;-46
2021/07/16 09:56:46;;;;;;;4.70;4.30;;;23.90;99.90;;;;;;4940267;29;20215;-48
2021/07/16 09:59:17;;;;;;;4.35;3.85;;;23.60;99.90;;;;;;4938625;29;20263;-51
2021/07/16 10:01:48;;;;;;;4.38;3.97;;;23.50;99.90;;;;;;4937654;29;20258;-46
2021/07/16 10:04:20;;;;;;;4.80;3.83;;;23.50;99.90;;;;;;4939273;29;20218;-49
2021/07/16 10:06:52;;;;;;;4.70;4.03;;;23.40;99.90;;;;;;4937425;29;20738;-49
2021/07/16 10:09:24;;;;;;;4.35;3.95;;;23.30;99.90;;;;;;4936742;29;20239;-45
2021/07/16 10:11:54;;;;;;;3.60;3.25;;;23.30;99.90;;;;;;4936849;29;20621;-47
2021/07/16 10:14:22;;;;;;;5.32;4.93;;;23.20;99.90;;;;;;4936493;29;20212;-48
2021/07/16 10:16:53;;;;;;;4.40;4.00;;;23.20;99.90;;;;;;4936501;29;20236;-46
2021/07/16 10:19:22;;;;;;;3.72;3.42;;;23.20;99.90;;;;;;4936840;29;20576;-48
2021/07/16 10:21:51;;;;;;;3.42;3.13;;;23.20;99.90;;;;;;4936762;29;20292;-46
2021/07/16 10:24:24;;;;;;;3.95;3.42;;;23.20;99.90;;;;;;4935394;29;20583;-49
2021/07/16 10:27:14;;;;;;;4.57;4.22;;;23.40;99.90;;;;;;4936564;29;20220;-49
2021/07/16 10:29:45;;;;;;;5.30;4.90;;;23.30;99.90;;;;;;4936148;29;20287;-46
2021/07/16 10:32:45;;;;;;;5.13;3.83;;;23.40;99.90;;;;;;4935953;29;20216;-45
2021/07/16 10:35:17;;;;;;;4.00;3.70;;;23.50;99.90;;;;;;4935906;29;20258;-48
2021/07/16 10:37:46;;;;;;;4.55;4.22;;;23.50;99.90;;;;;;4935996;29;20299;-49
2021/07/16 10:40:35;;;;;;;5.72;5.22;;;23.70;99.90;;;;;;4936008;29;20271;-47
2021/07/16 10:43:04;;;;;;;7.15;6.47;;;23.70;99.90;;;;;;4936064;29;20462;-50
2021/07/16 10:45:34;;;;;;;6.72;5.85;;;23.30;99.90;;;;;;4935675;29;20244;-49
2021/07/16 10:48:16;;;;;;;5.20;4.70;;;22.90;99.90;;;;;;4938364;29;20238;-49
2021/07/16 10:50:46;;;;;;;5.68;5.18;;;22.60;99.90;;;;;;4936579;29;20347;-48
2021/07/16 10:53:18;;;;;;;4.10;3.70;;;22.40;99.90;;;;;;4938015;29;20212;-46
2021/07/16 10:56:13;;;;;;;4.25;3.85;;;22.10;99.90;;;;;;4938381;29;20295;-46
2021/07/16 10:58:44;;;;;;;3.97;3.63;;;22.00;99.90;;;;;;4935973;29;20207;-45
2021/07/16 11:01:13;;;;;;;4.30;3.97;;;21.90;99.90;;;;;;4935765;29;20208;-45
2021/07/16 11:03:45;;;;;;;4.65;4.25;;;21.90;99.90;;;;;;4935750;29;20287;-48
2021/07/16 11:06:14;;;;;;;3.40;3.10;;;22.10;99.90;;;;;;4935646;29;20212;-47
2021/07/16 11:08:58;;;;;;;4.35;3.28;;;22.20;99.90;;;;;;4935349;29;20275;-48
2021/07/16 11:11:38;;;;;;;3.58;3.30;;;22.60;99.90;;;;;;4935468;29;20219;-44
2021/07/16 11:14:19;;;;;;;3.85;3.22;;;23.00;99.90;;;;;;4935444;29;20240;-45
2021/07/16 11:16:48;;;;;;;6.78;5.00;;;23.20;99.90;;;;;;4935537;29;20243;-48
2021/07/16 11:19:25;;;;;;;4.03;3.22;;;23.40;99.90;;;;;;4935322;29;20251;-44
2021/07/16 11:22:07;;;;;;;3.63;3.33;;;23.50;99.90;;;;;;4935506;29;20294;-46
2021/07/16 11:24:40;;;;;;;3.22;2.97;;;23.80;99.60;;;;;;4935102;29;20215;-47
2021/07/16 11:27:11;;;;;;;3.22;3.03;;;24.00;99.20;;;;;;4935281;29;20239;-49
2021/07/16 11:29:41;;;;;;;3.95;3.65;;;24.30;98.80;;;;;;4936461;29;20228;-47
2021/07/16 11:32:13;;;;;;;4.03;3.63;;;24.60;98.60;;;;;;4934989;29;20251;-48
2021/07/16 11:34:52;;;;;;;4.00;3.00;;;24.70;98.40;;;;;;4934859;29;20223;-46
2021/07/16 11:37:26;;;;;;;3.05;2.65;;;24.60;98.20;;;;;;4935441;29;20211;-47
2021/07/16 11:40:00;;;;;;;3.08;2.78;;;24.60;98.20;;;;;;4934574;29;20303;-53
2021/07/16 11:42:28;;;;;;;5.55;5.00;;;24.60;98.20;;;;;;4935113;29;20284;-45
2021/07/16 11:44:56;;;;;;;5.82;3.33;;;24.60;97.90;;;;;;4934895;29;20299;-51
2021/07/16 11:47:26;;;;;;;2.60;2.40;;;24.50;98.00;;;;;;4934761;29;20339;-45
2021/07/16 11:49:57;;;;;;;5.28;3.40;;;24.30;98.20;;;;;;4935552;29;20322;-46
2021/07/16 11:52:27;;;;;;;4.25;3.00;;;24.20;98.20;;;;;;4934817;29;20212;-45
2021/07/16 11:55:02;;;;;;;3.03;2.72;;;24.10;98.20;;;;;;4934643;29;20306;-47
2021/07/16 11:57:30;;;;;;;3.88;3.22;;;23.90;98.40;;;;;;4934566;29;20302;-47
2021/07/16 11:59:58;;;;;;;5.93;2.80;;;23.50;98.80;;;;;;4934275;29;20214;-46
2021/07/16 12:02:26;;;;;;;3.40;2.75;;;23.30;99.10;;;;;;4934413;29;20328;-51
2021/07/16 12:04:59;;;;;;;2.45;2.28;;;23.30;99.20;;;;;;4934555;29;20211;-50
2021/07/16 12:07:36;;;;;;;2.70;2.42;;;23.40;98.90;;;;;;4935652;29;20322;-48
2021/07/16 12:10:10;;;;;;;1.92;1.83;;;23.50;98.50;;;;;;4935550;29;20282;-51
2021/07/16 12:12:38;;;;;;;3.33;3.03;;;23.60;98.30;;;;;;4935188;29;20222;-45
2021/07/16 12:15:09;;;;;;;2.80;2.60;;;23.60;98.20;;;;;;4935246;29;20338;-49
2021/07/16 12:17:40;;;;;;;2.90;2.35;;;23.70;98.00;;;;;;4936663;29;20207;-49
2021/07/16 12:20:13;;;;;;;2.13;1.92;;;23.70;98.00;;;;;;4935772;29;20731;-51
2021/07/16 12:22:43;;;;;;;6.40;2.53;;;23.80;97.80;;;;;;4937162;29;20290;-46
2021/07/16 12:25:13;;;;;;;2.92;2.42;;;23.80;97.90;;;;;;4939133;29;20286;-51
2021/07/16 12:27:45;;;;;;;2.95;2.75;;;23.80;97.90;;;;;;4935513;29;20216;-49
2021/07/16 12:30:15;;;;;;;2.97;2.38;;;23.90;97.80;;;;;;4934797;29;20267;-48
2021/07/16 12:32:45;;;;;;;2.72;2.17;;;23.90;97.70;;;;;;4936187;29;20218;-51
2021/07/16 12:35:21;;;;;;;1.80;1.70;;;23.90;97.60;;;;;;4935608;29;20703;-49
2021/07/16 12:37:51;;;;;;;4.43;1.95;;;23.90;97.30;;;;;;4935989;29;20250;-49
2021/07/16 12:40:21;;;;;;;2.83;2.10;;;24.10;97.00;;;;;;4935406;29;20243;-48
2021/07/16 12:43:01;;;;;;;1.90;1.80;;;24.20;96.80;;;;;;4937301;29;20295;-49
2021/07/16 12:45:37;;;;;;;1.83;1.58;;;24.50;96.50;;;;;;4935089;29;20577;-46
2021/07/16 12:48:15;;;;;;;3.90;2.53;;;24.80;95.90;;;;;;4937210;29;20212;-50
2021/07/16 12:50:46;;;;;;;5.80;2.70;;;24.90;95.90;;;;;;4938628;29;20683;-49
2021/07/16 12:53:28;;;;;;;4.32;1.95;;;24.90;95.80;;;;;;4938502;29;20216;-48